sensor_id;sensor_type;location;lat;lon;timestamp;temperature;humidity
12481;DHT22;6305;48.398;11.762;2023-04-03T00:01:01;3.00;99.90
12481;DHT22;6305;48.398;11.762;2023-04-03T00:03:28;3.00;99.90
12481;DHT22;6305;48.398;11.762;2023-04-03T00:05:55;3.00;99.90
12481;DHT22;6305;48.398;11.762;2023-04-03T00:08:22;3.00;99.90
12481;DHT22;6305;48.398;11.762;2023-04-03T00:10:49;3.00;99.90
12481;DHT22;6305;48.398;11.762;2023-04-03T00:13:17;2.90;99.90
12481;DHT22;6305;48.398;11.762;2023-04-03T00:15:44;2.90;99.90
12481;DHT22;6305;48.398;11.762;2023-04-03T00:18:14;2.90;99.90
12481;DHT22;6305;48.398;11.762;2023-04-03T00:20:41;2.90;99.90
12481;DHT22;6305;48.398;11.762;2023-04-03T00:23:08;2.90;99.90
12481;DHT22;6305;48.398;11.762;2023-04-03T00:25:35;2.90;99.90
12481;DHT22;6305;48.398;11.762;2023-04-03T00:28:03;2.90;99.90
12481;DHT22;6305;48.398;11.762;2023-04-03T00:30:33;2.90;99.90
12481;DHT22;6305;48.398;11.762;2023-04-03T00:33:00;2.90;99.90
12481;DHT22;6305;48.398;11.762;2023-04-03T00:35:28;2.90;99.90
12481;DHT22;6305;48.398;11.762;2023-04-03T00:37:55;2.90;99.90
12481;DHT22;6305;48.398;11.762;2023-04-03T00:40:25;2.90;99.90
12481;DHT22;6305;48.398;11.762;2023-04-03T00:42:56;2.90;99.90
12481;DHT22;6305;48.398;11.762;2023-04-03T00:45:31;2.90;99.90
12481;DHT22;6305;48.398;11.762;2023-04-03T00:48:01;2.90;99.90
12481;DHT22;6305;48.398;11.762;2023-04-03T00:50:33;2.90;99.90
12481;DHT22;6305;48.398;11.762;2023-04-03T00:53:01;2.90;99.90
12481;DHT22;6305;48.398;11.762;2023-04-03T00:55:29;2.80;99.90
12481;DHT22;6305;48.398;11.762;2023-04-03T00:57:57;2.80;99.90
12481;DHT22;6305;48.398;11.762;2023-04-03T01:00:25;2.80;99.90
12481;DHT22;6305;48.398;11.762;2023-04-03T01:02:53;2.80;99.90
12481;DHT22;6305;48.398;11.762;2023-04-03T01:05:22;2.80;99.90
12481;DHT22;6305;48.398;11.762;2023-04-03T01:07:50;2.80;99.90
12481;DHT22;6305;48.398;11.762;2023-04-03T01:10:18;2.80;99.90
12481;DHT22;6305;48.398;11.762;2023-04-03T01:12:48;2.80;99.90
12481;DHT22;6305;48.398;11.762;2023-04-03T01:15:18;2.80;99.90
12481;DHT22;6305;48.398;11.762;2023-04-03T01:17:47;2.80;99.90
12481;DHT22;6305;48.398;11.762;2023-04-03T01:20:43;2.80;99.90
12481;DHT22;6305;48.398;11.762;2023-04-03T01:23:25;2.70;99.90
12481;DHT22;6305;48.398;11.762;2023-04-03T01:25:56;2.80;99.90
12481;DHT22;6305;48.398;11.762;2023-04-03T01:28:25;2.80;99.90
12481;DHT22;6305;48.398;11.762;2023-04-03T01:30:59;2.80;99.90
12481;DHT22;6305;48.398;11.762;2023-04-03T01:33:30;2.80;99.90
12481;DHT22;6305;48.398;11.762;2023-04-03T01:35:58;2.80;99.90
12481;DHT22;6305;48.398;11.762;2023-04-03T01:38:25;2.70;99.90
12481;DHT22;6305;48.398;11.762;2023-04-03T01:40:59;2.70;99.90
12481;DHT22;6305;48.398;11.762;2023-04-03T01:43:26;2.70;99.90
12481;DHT22;6305;48.398;11.762;2023-04-03T01:45:53;2.70;99.90
12481;DHT22;6305;48.398;11.762;2023-04-03T01:48:23;2.70;99.90
12481;DHT22;6305;48.398;11.762;2023-04-03T01:50:52;2.70;99.90
12481;DHT22;6305;48.398;11.762;2023-04-03T01:53:20;2.70;99.90
12481;DHT22;6305;48.398;11.762;2023-04-03T01:55:49;2.70;99.90
12481;DHT22;6305;48.398;11.762;2023-04-03T01:58:18;2.70;99.90
12481;DHT22;6305;48.398;11.762;2023-04-03T02:00:47;2.70;99.90
12481;DHT22;6305;48.398;11.762;2023-04-03T02:03:14;2.70;99.90
12481;DHT22;6305;48.398;11.762;2023-04-03T02:05:44;2.70;99.90
12481;DHT22;6305;48.398;11.762;2023-04-03T02:08:16;2.70;99.90
12481;DHT22;6305;48.398;11.762;2023-04-03T02:10:53;2.70;99.90
12481;DHT22;6305;48.398;11.762;2023-04-03T02:13:22;2.70;99.90
12481;DHT22;6305;48.398;11.762;2023-04-03T02:15:49;2.70;99.90
12481;DHT22;6305;48.398;11.762;2023-04-03T02:18:17;2.70;99.90
12481;DHT22;6305;48.398;11.762;2023-04-03T02:20:44;2.70;99.90
12481;DHT22;6305;48.398;11.762;2023-04-03T02:23:12;2.70;99.90
12481;DHT22;6305;48.398;11.762;2023-04-03T02:25:39;2.60;99.90
12481;DHT22;6305;48.398;11.762;2023-04-03T02:28:09;2.60;99.90
12481;DHT22;6305;48.398;11.762;2023-04-03T02:30:36;2.60;99.90
12481;DHT22;6305;48.398;11.762;2023-04-03T02:33:04;2.60;99.90
12481;DHT22;6305;48.398;11.762;2023-04-03T02:35:31;2.60;99.90
12481;DHT22;6305;48.398;11.762;2023-04-03T02:37:58;2.60;99.90
12481;DHT22;6305;48.398;11.762;2023-04-03T02:40:27;2.60;99.90
12481;DHT22;6305;48.398;11.762;2023-04-03T02:42:54;2.60;99.90
12481;DHT22;6305;48.398;11.762;2023-04-03T02:45:23;2.60;99.90
12481;DHT22;6305;48.398;11.762;2023-04-03T02:47:50;2.60;99.90
12481;DHT22;6305;48.398;11.762;2023-04-03T02:50:17;2.60;99.90
12481;DHT22;6305;48.398;11.762;2023-04-03T02:52:44;2.60;99.90
12481;DHT22;6305;48.398;11.762;2023-04-03T02:55:14;2.60;99.90
12481;DHT22;6305;48.398;11.762;2023-04-03T02:57:45;2.60;99.90
12481;DHT22;6305;48.398;11.762;2023-04-03T03:00:13;2.60;99.90
12481;DHT22;6305;48.398;11.762;2023-04-03T03:02:40;2.50;99.90
12481;DHT22;6305;48.398;11.762;2023-04-03T03:05:08;2.60;99.90
12481;DHT22;6305;48.398;11.762;2023-04-03T03:07:35;2.50;99.90
12481;DHT22;6305;48.398;11.762;2023-04-03T03:10:03;2.50;99.90
12481;DHT22;6305;48.398;11.762;2023-04-03T03:12:30;2.50;99.90
12481;DHT22;6305;48.398;11.762;2023-04-03T03:14:58;2.50;99.90
12481;DHT22;6305;48.398;11.762;2023-04-03T03:17:25;2.50;99.90
12481;DHT22;6305;48.398;11.762;2023-04-03T03:19:52;2.50;99.90
12481;DHT22;6305;48.398;11.762;2023-04-03T03:22:19;2.50;99.90
12481;DHT22;6305;48.398;11.762;2023-04-03T03:24:46;2.40;99.90
12481;DHT22;6305;48.398;11.762;2023-04-03T03:27:14;2.40;99.90
12481;DHT22;6305;48.398;11.762;2023-04-03T03:29:42;2.40;99.90
12481;DHT22;6305;48.398;11.762;2023-04-03T03:32:10;2.40;99.90
12481;DHT22;6305;48.398;11.762;2023-04-03T03:34:37;2.40;99.90
12481;DHT22;6305;48.398;11.762;2023-04-03T03:37:05;2.40;99.90
12481;DHT22;6305;48.398;11.762;2023-04-03T03:39:31;2.40;99.90
12481;DHT22;6305;48.398;11.762;2023-04-03T03:41:58;2.40;99.90
12481;DHT22;6305;48.398;11.762;2023-04-03T03:44:26;2.40;99.90
12481;DHT22;6305;48.398;11.762;2023-04-03T03:46:54;2.30;99.90
12481;DHT22;6305;48.398;11.762;2023-04-03T03:49:23;2.30;99.90
12481;DHT22;6305;48.398;11.762;2023-04-03T03:51:50;2.30;99.90
12481;DHT22;6305;48.398;11.762;2023-04-03T03:54:18;2.30;99.90
12481;DHT22;6305;48.398;11.762;2023-04-03T03:56:45;2.30;99.90
12481;DHT22;6305;48.398;11.762;2023-04-03T03:59:12;2.30;99.90
12481;DHT22;6305;48.398;11.762;2023-04-03T04:01:40;2.30;99.90
12481;DHT22;6305;48.398;11.762;2023-04-03T04:04:08;2.30;99.90
12481;DHT22;6305;48.398;11.762;2023-04-03T04:06:36;2.30;99.90
12481;DHT22;6305;48.398;11.762;2023-04-03T04:09:08;2.30;99.90
12481;DHT22;6305;48.398;11.762;2023-04-03T04:11:35;2.30;99.90
12481;DHT22;6305;48.398;11.762;2023-04-03T04:14:02;2.30;99.90
12481;DHT22;6305;48.398;11.762;2023-04-03T04:16:30;2.30;99.90
12481;DHT22;6305;48.398;11.762;2023-04-03T04:19:02;2.30;99.90
12481;DHT22;6305;48.398;11.762;2023-04-03T04:21:30;2.30;99.90
12481;DHT22;6305;48.398;11.762;2023-04-03T04:23:59;2.20;99.90
12481;DHT22;6305;48.398;11.762;2023-04-03T04:26:26;2.30;99.90
12481;DHT22;6305;48.398;11.762;2023-04-03T04:28:53;2.20;99.90
12481;DHT22;6305;48.398;11.762;2023-04-03T04:31:20;2.20;99.90
12481;DHT22;6305;48.398;11.762;2023-04-03T04:33:48;2.20;99.90
12481;DHT22;6305;48.398;11.762;2023-04-03T04:36:15;2.20;99.90
12481;DHT22;6305;48.398;11.762;2023-04-03T04:38:44;2.20;99.90
12481;DHT22;6305;48.398;11.762;2023-04-03T04:41:13;2.20;99.90
12481;DHT22;6305;48.398;11.762;2023-04-03T04:43:40;2.20;99.90
12481;DHT22;6305;48.398;11.762;2023-04-03T04:46:10;2.20;99.90
12481;DHT22;6305;48.398;11.762;2023-04-03T04:48:43;2.20;99.90
12481;DHT22;6305;48.398;11.762;2023-04-03T04:51:14;2.20;99.90
12481;DHT22;6305;48.398;11.762;2023-04-03T04:53:41;2.20;99.90
12481;DHT22;6305;48.398;11.762;2023-04-03T04:56:13;2.20;99.90
12481;DHT22;6305;48.398;11.762;2023-04-03T04:58:41;2.20;99.90
12481;DHT22;6305;48.398;11.762;2023-04-03T05:01:09;2.30;99.90
12481;DHT22;6305;48.398;11.762;2023-04-03T05:03:48;2.30;99.90
12481;DHT22;6305;48.398;11.762;2023-04-03T05:06:17;2.30;99.90
12481;DHT22;6305;48.398;11.762;2023-04-03T05:08:45;2.30;99.90
12481;DHT22;6305;48.398;11.762;2023-04-03T05:11:13;2.30;99.90
12481;DHT22;6305;48.398;11.762;2023-04-03T05:13:43;2.30;99.90
12481;DHT22;6305;48.398;11.762;2023-04-03T05:16:10;2.30;99.90
12481;DHT22;6305;48.398;11.762;2023-04-03T05:18:37;2.40;99.90
12481;DHT22;6305;48.398;11.762;2023-04-03T05:21:08;2.40;99.90
12481;DHT22;6305;48.398;11.762;2023-04-03T05:23:39;2.40;99.90
12481;DHT22;6305;48.398;11.762;2023-04-03T05:26:06;2.40;99.90
12481;DHT22;6305;48.398;11.762;2023-04-03T05:28:35;2.50;99.90
12481;DHT22;6305;48.398;11.762;2023-04-03T05:31:02;2.50;99.90
12481;DHT22;6305;48.398;11.762;2023-04-03T05:33:34;2.60;99.90
12481;DHT22;6305;48.398;11.762;2023-04-03T05:36:03;2.60;99.90
12481;DHT22;6305;48.398;11.762;2023-04-03T05:38:32;2.70;99.90
12481;DHT22;6305;48.398;11.762;2023-04-03T05:40:59;2.80;99.90
12481;DHT22;6305;48.398;11.762;2023-04-03T05:43:27;2.80;99.90
12481;DHT22;6305;48.398;11.762;2023-04-03T05:45:56;2.90;99.90
12481;DHT22;6305;48.398;11.762;2023-04-03T05:48:25;3.00;99.90
12481;DHT22;6305;48.398;11.762;2023-04-03T05:50:53;3.10;99.90
12481;DHT22;6305;48.398;11.762;2023-04-03T05:53:26;3.10;99.90
12481;DHT22;6305;48.398;11.762;2023-04-03T05:55:55;3.30;99.90
12481;DHT22;6305;48.398;11.762;2023-04-03T05:58:23;3.30;99.90
12481;DHT22;6305;48.398;11.762;2023-04-03T06:00:51;3.40;99.90
12481;DHT22;6305;48.398;11.762;2023-04-03T06:03:22;3.50;99.90
12481;DHT22;6305;48.398;11.762;2023-04-03T06:05:53;3.60;99.90
12481;DHT22;6305;48.398;11.762;2023-04-03T06:08:20;3.70;99.90
12481;DHT22;6305;48.398;11.762;2023-04-03T06:10:47;3.80;99.90
12481;DHT22;6305;48.398;11.762;2023-04-03T06:13:14;3.90;99.90
12481;DHT22;6305;48.398;11.762;2023-04-03T06:15:41;4.00;99.90
12481;DHT22;6305;48.398;11.762;2023-04-03T06:18:08;4.10;99.90
12481;DHT22;6305;48.398;11.762;2023-04-03T06:20:37;4.30;99.90
12481;DHT22;6305;48.398;11.762;2023-04-03T06:23:04;4.40;99.90
12481;DHT22;6305;48.398;11.762;2023-04-03T06:25:31;4.40;99.90
12481;DHT22;6305;48.398;11.762;2023-04-03T06:27:59;4.50;99.90
12481;DHT22;6305;48.398;11.762;2023-04-03T06:30:27;4.60;99.90
12481;DHT22;6305;48.398;11.762;2023-04-03T06:32:54;4.70;99.90
12481;DHT22;6305;48.398;11.762;2023-04-03T06:35:21;4.80;99.90
12481;DHT22;6305;48.398;11.762;2023-04-03T06:37:50;5.00;99.90
12481;DHT22;6305;48.398;11.762;2023-04-03T06:40:21;5.10;99.90
12481;DHT22;6305;48.398;11.762;2023-04-03T06:42:49;5.30;99.90
12481;DHT22;6305;48.398;11.762;2023-04-03T06:45:17;5.40;99.90
12481;DHT22;6305;48.398;11.762;2023-04-03T06:47:45;5.40;99.90
12481;DHT22;6305;48.398;11.762;2023-04-03T06:50:12;5.50;99.90
12481;DHT22;6305;48.398;11.762;2023-04-03T06:52:40;5.60;99.90
12481;DHT22;6305;48.398;11.762;2023-04-03T06:55:09;5.70;99.90
12481;DHT22;6305;48.398;11.762;2023-04-03T06:57:37;5.90;99.90
12481;DHT22;6305;48.398;11.762;2023-04-03T07:00:05;6.00;99.90
12481;DHT22;6305;48.398;11.762;2023-04-03T07:02:33;6.00;99.90
12481;DHT22;6305;48.398;11.762;2023-04-03T07:05:00;5.90;99.90
12481;DHT22;6305;48.398;11.762;2023-04-03T07:07:27;6.00;99.90
12481;DHT22;6305;48.398;11.762;2023-04-03T07:09:54;6.00;99.90
12481;DHT22;6305;48.398;11.762;2023-04-03T07:12:22;6.00;99.90
12481;DHT22;6305;48.398;11.762;2023-04-03T07:14:49;6.20;99.90
12481;DHT22;6305;48.398;11.762;2023-04-03T07:17:16;6.40;99.90
12481;DHT22;6305;48.398;11.762;2023-04-03T07:19:43;6.50;99.90
12481;DHT22;6305;48.398;11.762;2023-04-03T07:22:10;6.60;99.90
12481;DHT22;6305;48.398;11.762;2023-04-03T07:24:37;6.80;99.90
12481;DHT22;6305;48.398;11.762;2023-04-03T07:27:05;6.80;99.90
12481;DHT22;6305;48.398;11.762;2023-04-03T07:29:35;6.90;99.90
12481;DHT22;6305;48.398;11.762;2023-04-03T07:32:02;7.00;99.90
12481;DHT22;6305;48.398;11.762;2023-04-03T07:34:29;6.90;99.90
12481;DHT22;6305;48.398;11.762;2023-04-03T07:36:57;6.90;99.90
12481;DHT22;6305;48.398;11.762;2023-04-03T07:39:24;7.00;99.90
12481;DHT22;6305;48.398;11.762;2023-04-03T07:41:51;7.00;99.90
12481;DHT22;6305;48.398;11.762;2023-04-03T07:44:18;7.00;99.90
12481;DHT22;6305;48.398;11.762;2023-04-03T07:46:47;6.90;99.90
12481;DHT22;6305;48.398;11.762;2023-04-03T07:49:16;7.00;99.90
12481;DHT22;6305;48.398;11.762;2023-04-03T07:51:43;7.20;99.90
12481;DHT22;6305;48.398;11.762;2023-04-03T07:54:11;7.50;99.90
12481;DHT22;6305;48.398;11.762;2023-04-03T07:56:38;7.80;99.90
12481;DHT22;6305;48.398;11.762;2023-04-03T07:59:05;7.90;99.90
12481;DHT22;6305;48.398;11.762;2023-04-03T08:01:32;7.90;99.50
12481;DHT22;6305;48.398;11.762;2023-04-03T08:04:00;7.90;99.40
12481;DHT22;6305;48.398;11.762;2023-04-03T08:06:27;8.10;99.00
12481;DHT22;6305;48.398;11.762;2023-04-03T08:08:56;8.20;98.60
12481;DHT22;6305;48.398;11.762;2023-04-03T08:11:23;8.30;97.50
12481;DHT22;6305;48.398;11.762;2023-04-03T08:13:52;8.50;96.60
12481;DHT22;6305;48.398;11.762;2023-04-03T08:16:22;8.70;95.70
12481;DHT22;6305;48.398;11.762;2023-04-03T08:18:52;8.90;94.30
12481;DHT22;6305;48.398;11.762;2023-04-03T08:21:21;9.10;92.10
12481;DHT22;6305;48.398;11.762;2023-04-03T08:23:49;9.20;91.40
12481;DHT22;6305;48.398;11.762;2023-04-03T08:26:18;9.30;89.80
12481;DHT22;6305;48.398;11.762;2023-04-03T08:28:45;9.30;87.00
12481;DHT22;6305;48.398;11.762;2023-04-03T08:31:15;9.10;87.10
12481;DHT22;6305;48.398;11.762;2023-04-03T08:33:44;9.10;88.70
12481;DHT22;6305;48.398;11.762;2023-04-03T08:36:21;9.20;88.40
12481;DHT22;6305;48.398;11.762;2023-04-03T08:38:49;9.50;89.70
12481;DHT22;6305;48.398;11.762;2023-04-03T08:41:20;9.80;88.80
12481;DHT22;6305;48.398;11.762;2023-04-03T08:44:10;9.90;83.60
12481;DHT22;6305;48.398;11.762;2023-04-03T08:49:40;10.60;79.40
12481;DHT22;6305;48.398;11.762;2023-04-03T08:52:16;10.50;74.20
12481;DHT22;6305;48.398;11.762;2023-04-03T08:54:49;10.80;75.20
12481;DHT22;6305;48.398;11.762;2023-04-03T08:57:22;11.30;73.40
12481;DHT22;6305;48.398;11.762;2023-04-03T08:59:53;11.40;70.10
12481;DHT22;6305;48.398;11.762;2023-04-03T09:02:29;11.10;66.20
12481;DHT22;6305;48.398;11.762;2023-04-03T09:04:58;10.90;66.20
12481;DHT22;6305;48.398;11.762;2023-04-03T09:07:36;10.90;66.10
12481;DHT22;6305;48.398;11.762;2023-04-03T09:10:07;10.60;65.10
12481;DHT22;6305;48.398;11.762;2023-04-03T09:12:39;10.50;65.50
12481;DHT22;6305;48.398;11.762;2023-04-03T09:15:16;10.20;64.60
12481;DHT22;6305;48.398;11.762;2023-04-03T09:17:53;10.00;65.00
12481;DHT22;6305;48.398;11.762;2023-04-03T09:20:26;9.80;66.20
12481;DHT22;6305;48.398;11.762;2023-04-03T09:22:58;10.10;67.00
12481;DHT22;6305;48.398;11.762;2023-04-03T09:25:27;10.50;66.30
12481;DHT22;6305;48.398;11.762;2023-04-03T09:27:54;10.90;65.00
12481;DHT22;6305;48.398;11.762;2023-04-03T09:30:24;11.10;62.10
12481;DHT22;6305;48.398;11.762;2023-04-03T09:32:53;11.30;59.20
12481;DHT22;6305;48.398;11.762;2023-04-03T09:35:24;11.20;58.80
12481;DHT22;6305;48.398;11.762;2023-04-03T09:37:52;11.00;58.20
12481;DHT22;6305;48.398;11.762;2023-04-03T09:40:38;10.90;56.70
12481;DHT22;6305;48.398;11.762;2023-04-03T09:43:26;11.00;56.80
12481;DHT22;6305;48.398;11.762;2023-04-03T09:45:55;11.30;57.50
12481;DHT22;6305;48.398;11.762;2023-04-03T09:48:24;11.70;55.50
12481;DHT22;6305;48.398;11.762;2023-04-03T09:50:55;12.00;54.20
12481;DHT22;6305;48.398;11.762;2023-04-03T09:53:33;12.00;52.50
12481;DHT22;6305;48.398;11.762;2023-04-03T09:56:04;12.10;52.70
12481;DHT22;6305;48.398;11.762;2023-04-03T09:58:35;12.60;52.10
12481;DHT22;6305;48.398;11.762;2023-04-03T10:01:04;12.80;50.70
12481;DHT22;6305;48.398;11.762;2023-04-03T10:03:33;12.80;50.60
12481;DHT22;6305;48.398;11.762;2023-04-03T10:06:02;12.80;49.10
12481;DHT22;6305;48.398;11.762;2023-04-03T10:08:30;12.90;49.70
12481;DHT22;6305;48.398;11.762;2023-04-03T10:11:14;13.20;49.20
12481;DHT22;6305;48.398;11.762;2023-04-03T10:13:56;13.00;48.40
12481;DHT22;6305;48.398;11.762;2023-04-03T10:16:29;13.00;48.00
12481;DHT22;6305;48.398;11.762;2023-04-03T10:19:11;13.10;47.90
12481;DHT22;6305;48.398;11.762;2023-04-03T10:21:45;13.10;47.10
12481;DHT22;6305;48.398;11.762;2023-04-03T10:24:17;12.80;46.30
12481;DHT22;6305;48.398;11.762;2023-04-03T10:26:56;12.50;47.10
12481;DHT22;6305;48.398;11.762;2023-04-03T10:29:36;12.20;46.20
12481;DHT22;6305;48.398;11.762;2023-04-03T10:32:16;12.60;46.20
12481;DHT22;6305;48.398;11.762;2023-04-03T10:34:52;13.50;44.70
12481;DHT22;6305;48.398;11.762;2023-04-03T10:37:24;14.60;42.60
12481;DHT22;6305;48.398;11.762;2023-04-03T10:39:56;16.30;42.20
12481;DHT22;6305;48.398;11.762;2023-04-03T10:42:30;18.20;40.10
12481;DHT22;6305;48.398;11.762;2023-04-03T10:45:10;19.20;36.70
12481;DHT22;6305;48.398;11.762;2023-04-03T10:47:50;19.20;34.80
12481;DHT22;6305;48.398;11.762;2023-04-03T10:50:29;17.90;34.50
12481;DHT22;6305;48.398;11.762;2023-04-03T10:53:04;15.90;35.90
12481;DHT22;6305;48.398;11.762;2023-04-03T10:55:37;14.50;38.00
12481;DHT22;6305;48.398;11.762;2023-04-03T10:58:14;14.00;39.90
12481;DHT22;6305;48.398;11.762;2023-04-03T11:00:47;13.10;41.10
12481;DHT22;6305;48.398;11.762;2023-04-03T11:03:20;13.60;43.30
12481;DHT22;6305;48.398;11.762;2023-04-03T11:05:51;14.80;43.40
12481;DHT22;6305;48.398;11.762;2023-04-03T11:08:25;15.80;41.20
12481;DHT22;6305;48.398;11.762;2023-04-03T11:10:56;16.50;38.70
12481;DHT22;6305;48.398;11.762;2023-04-03T11:13:30;17.40;38.00
12481;DHT22;6305;48.398;11.762;2023-04-03T11:15:59;17.90;36.90
12481;DHT22;6305;48.398;11.762;2023-04-03T11:18:32;19.20;35.20
12481;DHT22;6305;48.398;11.762;2023-04-03T11:21:04;20.00;32.80
12481;DHT22;6305;48.398;11.762;2023-04-03T11:23:36;20.30;31.70
12481;DHT22;6305;48.398;11.762;2023-04-03T11:26:09;20.10;31.40
12481;DHT22;6305;48.398;11.762;2023-04-03T11:28:39;20.00;30.90
12481;DHT22;6305;48.398;11.762;2023-04-03T11:31:13;19.60;30.60
12481;DHT22;6305;48.398;11.762;2023-04-03T11:33:51;19.50;30.90
12481;DHT22;6305;48.398;11.762;2023-04-03T11:36:22;20.40;31.50
12481;DHT22;6305;48.398;11.762;2023-04-03T11:38:52;21.00;30.00
12481;DHT22;6305;48.398;11.762;2023-04-03T11:41:26;21.00;30.00
12481;DHT22;6305;48.398;11.762;2023-04-03T11:44:00;21.30;29.50
12481;DHT22;6305;48.398;11.762;2023-04-03T11:46:49;22.90;29.20
12481;DHT22;6305;48.398;11.762;2023-04-03T11:52:56;26.60;26.70
12481;DHT22;6305;48.398;11.762;2023-04-03T11:55:52;28.00;25.10
12481;DHT22;6305;48.398;11.762;2023-04-03T11:58:20;28.70;24.20
12481;DHT22;6305;48.398;11.762;2023-04-03T12:04:07;27.00;22.90
12481;DHT22;6305;48.398;11.762;2023-04-03T12:12:55;22.80;24.80
12481;DHT22;6305;48.398;11.762;2023-04-03T12:18:58;18.20;28.70
12481;DHT22;6305;48.398;11.762;2023-04-03T12:24:34;14.80;32.70
12481;DHT22;6305;48.398;11.762;2023-04-03T12:27:05;14.20;34.60
12481;DHT22;6305;48.398;11.762;2023-04-03T12:29:35;14.60;35.00
12481;DHT22;6305;48.398;11.762;2023-04-03T12:32:14;14.30;34.90
12481;DHT22;6305;48.398;11.762;2023-04-03T12:34:57;14.00;35.10
12481;DHT22;6305;48.398;11.762;2023-04-03T12:37:41;13.90;35.10
12481;DHT22;6305;48.398;11.762;2023-04-03T12:40:19;14.60;35.80
12481;DHT22;6305;48.398;11.762;2023-04-03T12:43:09;16.20;35.10
12481;DHT22;6305;48.398;11.762;2023-04-03T12:45:45;16.90;32.80
12481;DHT22;6305;48.398;11.762;2023-04-03T12:48:15;16.70;31.30
12481;DHT22;6305;48.398;11.762;2023-04-03T12:50:46;15.90;30.80
12481;DHT22;6305;48.398;11.762;2023-04-03T12:53:16;16.50;31.50
12481;DHT22;6305;48.398;11.762;2023-04-03T12:55:45;18.20;31.50
12481;DHT22;6305;48.398;11.762;2023-04-03T12:58:23;19.60;29.70
12481;DHT22;6305;48.398;11.762;2023-04-03T13:01:01;19.70;27.80
12481;DHT22;6305;48.398;11.762;2023-04-03T13:03:29;20.10;27.10
12481;DHT22;6305;48.398;11.762;2023-04-03T13:06:00;21.20;28.00
12481;DHT22;6305;48.398;11.762;2023-04-03T13:08:27;22.60;27.20
12481;DHT22;6305;48.398;11.762;2023-04-03T13:10:58;23.30;25.60
12481;DHT22;6305;48.398;11.762;2023-04-03T13:13:26;23.70;24.60
12481;DHT22;6305;48.398;11.762;2023-04-03T13:15:54;24.40;25.10
12481;DHT22;6305;48.398;11.762;2023-04-03T13:18:27;25.10;24.20
12481;DHT22;6305;48.398;11.762;2023-04-03T13:20:59;26.00;23.90
12481;DHT22;6305;48.398;11.762;2023-04-03T13:23:27;26.80;23.10
12481;DHT22;6305;48.398;11.762;2023-04-03T13:25:54;25.70;21.80
12481;DHT22;6305;48.398;11.762;2023-04-03T13:28:27;23.30;22.60
12481;DHT22;6305;48.398;11.762;2023-04-03T13:30:59;22.30;23.80
12481;DHT22;6305;48.398;11.762;2023-04-03T13:33:31;20.50;24.10
12481;DHT22;6305;48.398;11.762;2023-04-03T13:36:03;18.60;25.40
12481;DHT22;6305;48.398;11.762;2023-04-03T13:38:33;16.30;26.80
12481;DHT22;6305;48.398;11.762;2023-04-03T13:41:04;14.60;28.90
12481;DHT22;6305;48.398;11.762;2023-04-03T13:43:35;13.50;30.00
12481;DHT22;6305;48.398;11.762;2023-04-03T13:46:19;12.90;31.50
12481;DHT22;6305;48.398;11.762;2023-04-03T13:48:49;12.70;32.40
12481;DHT22;6305;48.398;11.762;2023-04-03T13:51:21;12.50;32.50
12481;DHT22;6305;48.398;11.762;2023-04-03T13:53:51;12.30;32.30
12481;DHT22;6305;48.398;11.762;2023-04-03T13:56:25;11.90;32.40
12481;DHT22;6305;48.398;11.762;2023-04-03T13:58:56;11.70;32.40
12481;DHT22;6305;48.398;11.762;2023-04-03T14:01:24;12.00;33.20
12481;DHT22;6305;48.398;11.762;2023-04-03T14:03:54;13.50;33.30
12481;DHT22;6305;48.398;11.762;2023-04-03T14:06:23;14.00;30.00
12481;DHT22;6305;48.398;11.762;2023-04-03T14:08:51;13.40;29.40
12481;DHT22;6305;48.398;11.762;2023-04-03T14:11:20;14.70;32.00
12481;DHT22;6305;48.398;11.762;2023-04-03T14:13:48;16.80;29.80
12481;DHT22;6305;48.398;11.762;2023-04-03T14:16:18;18.20;27.10
12481;DHT22;6305;48.398;11.762;2023-04-03T14:18:47;19.20;26.30
12481;DHT22;6305;48.398;11.762;2023-04-03T14:21:16;19.80;24.80
12481;DHT22;6305;48.398;11.762;2023-04-03T14:23:44;19.80;24.60
12481;DHT22;6305;48.398;11.762;2023-04-03T14:26:13;20.20;24.70
12481;DHT22;6305;48.398;11.762;2023-04-03T14:28:42;20.70;23.90
12481;DHT22;6305;48.398;11.762;2023-04-03T14:31:10;21.40;24.20
12481;DHT22;6305;48.398;11.762;2023-04-03T14:33:37;22.00;23.40
12481;DHT22;6305;48.398;11.762;2023-04-03T14:36:12;21.70;22.90
12481;DHT22;6305;48.398;11.762;2023-04-03T14:38:39;21.90;23.50
12481;DHT22;6305;48.398;11.762;2023-04-03T14:41:10;21.80;22.10
12481;DHT22;6305;48.398;11.762;2023-04-03T14:43:38;21.40;22.70
12481;DHT22;6305;48.398;11.762;2023-04-03T14:46:11;21.60;23.50
12481;DHT22;6305;48.398;11.762;2023-04-03T14:48:39;22.20;23.40
12481;DHT22;6305;48.398;11.762;2023-04-03T14:51:06;22.50;22.60
12481;DHT22;6305;48.398;11.762;2023-04-03T14:53:35;22.30;22.40
12481;DHT22;6305;48.398;11.762;2023-04-03T14:56:04;21.90;22.40
12481;DHT22;6305;48.398;11.762;2023-04-03T14:58:32;22.10;23.40
12481;DHT22;6305;48.398;11.762;2023-04-03T15:01:02;21.80;23.00
12481;DHT22;6305;48.398;11.762;2023-04-03T15:03:28;20.10;22.80
12481;DHT22;6305;48.398;11.762;2023-04-03T15:05:55;18.60;24.60
12481;DHT22;6305;48.398;11.762;2023-04-03T15:08:25;18.50;25.60
12481;DHT22;6305;48.398;11.762;2023-04-03T15:10:53;17.10;25.20
12481;DHT22;6305;48.398;11.762;2023-04-03T15:13:21;15.40;26.20
12481;DHT22;6305;48.398;11.762;2023-04-03T15:15:50;13.70;27.60
12481;DHT22;6305;48.398;11.762;2023-04-03T15:18:19;13.10;29.00
12481;DHT22;6305;48.398;11.762;2023-04-03T15:20:47;12.50;29.70
12481;DHT22;6305;48.398;11.762;2023-04-03T15:23:15;12.00;30.40
12481;DHT22;6305;48.398;11.762;2023-04-03T15:25:42;12.10;31.30
12481;DHT22;6305;48.398;11.762;2023-04-03T15:28:17;13.00;31.60
12481;DHT22;6305;48.398;11.762;2023-04-03T15:30:44;13.50;30.10
12481;DHT22;6305;48.398;11.762;2023-04-03T15:33:13;13.60;29.80
12481;DHT22;6305;48.398;11.762;2023-04-03T15:35:41;13.80;29.70
12481;DHT22;6305;48.398;11.762;2023-04-03T15:38:08;13.20;30.00
12481;DHT22;6305;48.398;11.762;2023-04-03T15:40:36;12.50;30.70
12481;DHT22;6305;48.398;11.762;2023-04-03T15:43:03;11.60;31.60
12481;DHT22;6305;48.398;11.762;2023-04-03T15:45:30;10.60;32.50
12481;DHT22;6305;48.398;11.762;2023-04-03T15:47:58;9.80;34.60
12481;DHT22;6305;48.398;11.762;2023-04-03T15:50:27;9.00;36.30
12481;DHT22;6305;48.398;11.762;2023-04-03T15:52:54;8.30;38.10
12481;DHT22;6305;48.398;11.762;2023-04-03T15:55:24;7.90;39.40
12481;DHT22;6305;48.398;11.762;2023-04-03T15:57:51;7.50;40.60
12481;DHT22;6305;48.398;11.762;2023-04-03T16:00:19;7.20;41.70
12481;DHT22;6305;48.398;11.762;2023-04-03T16:02:48;7.00;42.10
12481;DHT22;6305;48.398;11.762;2023-04-03T16:05:17;6.90;43.00
12481;DHT22;6305;48.398;11.762;2023-04-03T16:07:46;6.90;43.20
12481;DHT22;6305;48.398;11.762;2023-04-03T16:10:14;7.10;43.50
12481;DHT22;6305;48.398;11.762;2023-04-03T16:12:42;7.20;43.30
12481;DHT22;6305;48.398;11.762;2023-04-03T16:15:10;7.30;43.20
12481;DHT22;6305;48.398;11.762;2023-04-03T16:17:37;7.40;43.30
12481;DHT22;6305;48.398;11.762;2023-04-03T16:20:08;7.30;43.00